CheckWX is a tool to help pilots better visualize weather data.  It is not intended as a substitute for an official pre-flight weather briefing.

20:53:56 UTC

CWWU TAF
Ingenika Point Airport
Long Pond, Canada
TAF AMD CWWU 171900Z 1719/1818 VRB03KT P6SM OVC020 FM172200 15007KT P6SM BKN020 BKN050 FM180400 15007KT P6SM OVC020 FM180600 15007KT P6SM OVC015 TEMPO 1806/1812 3SM BR BKN008 OVC010 RMK FCST BASED ON AUTO OBS. NXT FCST BY 180000Z

Aug-17@
19:00 UTC

Aug-17 @ 19:00 UTC

Aug-17@
22:00 UTC

Aug-17 @ 22:00 UTC

TAF AMD CWWU 171900Z 1719/1818 VRB03KT P6SM OVC020
Wind
  • Variable at 3 KTS
Cloud Levels
  • Overcast at 2,000' AGL

Aug-17@
22:00 UTC

Aug-17 @ 22:00 UTC

Aug-18@
04:00 UTC

Aug-18 @ 04:00 UTC

FM172200 15007KT P6SM BKN020 BKN050

From

From Standard forecast or significant change

Wind
  • 150° at 7 KTS
Cloud Levels
  • Broken at 2,000' AGL
  • Broken at 5,000' AGL

Aug-18@
04:00 UTC

Aug-18 @ 04:00 UTC

Aug-18@
06:00 UTC

Aug-18 @ 06:00 UTC

FM180400 15007KT P6SM OVC020

From

From Standard forecast or significant change

Wind
  • 150° at 7 KTS
Cloud Levels
  • Overcast at 2,000' AGL

Aug-18@
06:00 UTC

Aug-18 @ 06:00 UTC

Aug-18@
12:00 UTC

Aug-18 @ 12:00 UTC

TEMPO 1806/1812 3SM BR BKN008 OVC010 RMK FCST BASED ON AUTO OBS. NXT FCST BY 180000Z

Temporary

Temporary Changes expected for less than half the time period

Conditions
Mist, Funnel cloud, tornado, or waterspout, Thunderstorm
Cloud Levels
  • Broken at 800' AGL
  • Overcast at 1,000' AGL

Aug-18@
06:00 UTC

Aug-18 @ 06:00 UTC

Aug-18@
18:00 UTC

Aug-18 @ 18:00 UTC

FM180600 15007KT P6SM OVC015

From

From Standard forecast or significant change

Wind
  • 150° at 7 KTS
Cloud Levels
  • Overcast at 1,500' AGL